Peotone Weather
Peotone-Weather Station Historical Data
Daily Summary for September 23, 2020 Units:  Both    English   Metric
Daily Weekly Monthly Yearly Custom
  High: Low: Average:
Temperature: 60.7 °F /  15.9 °C 53.3 °F /  11.8 °C 55.5 °F /  13.1 °C
Dew Point: 56.1 °F /  13.4 °C 50.6 °F /  10.3 °C 51.9 °F /  11.1 °C
Humidity: 91% 81% 88%
Wind Speed: 5.4mph /  8.7km/h - 2.8mph /  4.5km/h
Wind Gust: 9.2mph /  14.8km/h - -
Wind- - West
Pressure: 30.10 in /  1019.2 hPa 30.07 in /  1018.2 hPa -
Precipitation: 0.00 in /  0 mm    
Historical Graphs
 
 
Tabular Data for September 23, 2020
Time Temperature Dew Point Pressure Wind Wind Speed Wind Gust Humidity Rainfall Rate (Hourly) solar
00:04 59.3 °F /  15.2 °C 53.5 °F /  11.9 °C 30.09in /  1018.8hPa West 2.4mph /  3.9km/h 4.6mph /  7.4km/h 81% 0.00in /  0mm 0 W/m2
00:09 59.3 °F /  15.2 °C 53.5 °F /  11.9 °C 30.09in /  1018.8hPa West 2.1mph /  3.4km/h 4.6mph /  7.4km/h 81% 0.00in /  0mm 0 W/m2
00:14 58.9 °F /  14.9 °C 53.2 °F /  11.8 °C 30.09in /  1018.8hPa West 2.5mph /  4km/h 4.6mph /  7.4km/h 81.6% 0.00in /  0mm 0 W/m2
00:19 58.5 °F /  14.7 °C 53.1 °F /  11.7 °C 30.09in /  1018.8hPa West 2.1mph /  3.4km/h 4.6mph /  7.4km/h 82.3% 0.00in /  0mm 0 W/m2
00:24 58.5 °F /  14.7 °C 53 °F /  11.7 °C 30.09in /  1018.8hPa West 3mph /  4.8km/h 4.6mph /  7.4km/h 82% 0.00in /  0mm 0 W/m2
00:29 58.7 °F /  14.8 °C 53.1 °F /  11.7 °C 30.09in /  1018.8hPa West 3mph /  4.8km/h 4.6mph /  7.4km/h 81.8% 0.00in /  0mm 0 W/m2
00:34 58.6 °F /  14.8 °C 53.2 °F /  11.8 °C 30.09in /  1018.8hPa West 3.1mph /  5km/h 4.6mph /  7.4km/h 82% 0.00in /  0mm 0 W/m2
00:39 58.7 °F /  14.8 °C 53 °F /  11.7 °C 30.09in /  1018.8hPa West 2.9mph /  4.7km/h 4.6mph /  7.4km/h 81.3% 0.00in /  0mm 0 W/m2
00:44 58.4 °F /  14.7 °C 52.9 °F /  11.6 °C 30.09in /  1018.8hPa West 2.1mph /  3.4km/h 4.6mph /  7.4km/h 81.8% 0.00in /  0mm 0 W/m2
00:49 58 °F /  14.4 °C 52.8 °F /  11.6 °C 30.09in /  1018.8hPa WNW 2mph /  3.2km/h 3.4mph /  5.5km/h 82.8% 0.00in /  0mm 0 W/m2
00:54 57.9 °F /  14.4 °C 52.7 °F /  11.5 °C 30.09in /  1018.8hPa WNW 1.9mph /  3.1km/h 3.4mph /  5.5km/h 83% 0.00in /  0mm 0 W/m2
00:59 57.5 °F /  14.2 °C 52.5 °F /  11.4 °C 30.09in /  1018.8hPa West 1.4mph /  2.3km/h 3.4mph /  5.5km/h 83.2% 0.00in /  0mm 0 W/m2
01:04 57.1 °F /  13.9 °C 52.4 °F /  11.3 °C 30.09in /  1018.8hPa West 2.5mph /  4km/h 4.6mph /  7.4km/h 84.3% 0.00in /  0mm 0 W/m2
01:09 56.9 °F /  13.8 °C 52.4 °F /  11.3 °C 30.09in /  1018.8hPa West 1.3mph /  2.1km/h 4.6mph /  7.4km/h 85% 0.00in /  0mm 0 W/m2
01:14 56.7 °F /  13.7 °C 52.3 °F /  11.3 °C 30.09in /  1018.8hPa West 1.8mph /  2.9km/h 3.4mph /  5.5km/h 85% 0.00in /  0mm 0 W/m2
01:19 56.5 °F /  13.6 °C 52.3 °F /  11.3 °C 30.09in /  1018.8hPa West 1mph /  1.6km/h 3.4mph /  5.5km/h 85.6% 0.00in /  0mm 0 W/m2
01:24 56.6 °F /  13.7 °C 52.3 °F /  11.3 °C 30.09in /  1018.8hPa West 3.7mph /  6km/h 4.6mph /  7.4km/h 85.6% 0.00in /  0mm 0 W/m2
01:29 57 °F /  13.9 °C 52.4 °F /  11.3 °C 30.09in /  1018.8hPa West 2.8mph /  4.5km/h 4.6mph /  7.4km/h 84.6% 0.00in /  0mm 0 W/m2
01:34 57.1 °F /  13.9 °C 52.5 °F /  11.4 °C 30.09in /  1018.8hPa West 2.9mph /  4.7km/h 4.6mph /  7.4km/h 84.6% 0.00in /  0mm 0 W/m2
01:39 57.1 °F /  13.9 °C 52.3 °F /  11.3 °C 30.09in /  1018.8hPa West 2.4mph /  3.9km/h 4.6mph /  7.4km/h 84% 0.00in /  0mm 0 W/m2
01:44 56.8 °F /  13.8 °C 52.2 °F /  11.2 °C 30.09in /  1018.8hPa West 2.3mph /  3.7km/h 4.6mph /  7.4km/h 84.5% 0.00in /  0mm 0 W/m2
01:49 56.8 °F /  13.8 °C 52.3 °F /  11.3 °C 30.09in /  1018.8hPa West 2.7mph /  4.3km/h 4.6mph /  7.4km/h 85% 0.00in /  0mm 0 W/m2
01:54 56.7 °F /  13.7 °C 52.2 °F /  11.2 °C 30.09in /  1018.8hPa West 2.2mph /  3.5km/h 4.6mph /  7.4km/h 84.8% 0.00in /  0mm 0 W/m2
01:59 56.2 °F /  13.4 °C 51.8 °F /  11 °C 30.09in /  1018.8hPa West 1.8mph /  2.9km/h 3.4mph /  5.5km/h 85.2% 0.00in /  0mm 0 W/m2
02:04 55.9 °F /  13.3 °C 51.8 °F /  11 °C 30.09in /  1018.8hPa West 1.9mph /  3.1km/h 2.3mph /  3.7km/h 86% 0.00in /  0mm 0 W/m2
02:09 55.6 °F /  13.1 °C 51.6 °F /  10.9 °C 30.08in /  1018.5hPa West 1.8mph /  2.9km/h 2.3mph /  3.7km/h 86.3% 0.00in /  0mm 0 W/m2
02:14 55.3 °F /  12.9 °C 51.5 °F /  10.8 °C 30.08in /  1018.5hPa West 2.8mph /  4.5km/h 5.8mph /  9.3km/h 87% 0.00in /  0mm 0 W/m2
02:19 55.2 °F /  12.9 °C 51.6 °F /  10.9 °C 30.08in /  1018.5hPa West 1.8mph /  2.9km/h 5.8mph /  9.3km/h 87.5% 0.00in /  0mm 0 W/m2
02:24 55.3 °F /  12.9 °C 51.6 °F /  10.9 °C 30.08in /  1018.5hPa WNW 1.5mph /  2.4km/h 4.6mph /  7.4km/h 87.4% 0.00in /  0mm 0 W/m2
02:29 55.1 °F /  12.8 °C 51.4 °F /  10.8 °C 30.08in /  1018.5hPa WNW 2mph /  3.2km/h 4.6mph /  7.4km/h 87.2% 0.00in /  0mm 0 W/m2
02:34 54.8 °F /  12.7 °C 51.4 °F /  10.8 °C 30.08in /  1018.5hPa WNW 0.7mph /  1.1km/h 3.4mph /  5.5km/h 88% 0.00in /  0mm 0 W/m2
02:39 54.7 °F /  12.6 °C 51.2 °F /  10.7 °C 30.08in /  1018.5hPa WNW 0.6mph /  1km/h 3.4mph /  5.5km/h 88% 0.00in /  0mm 0 W/m2
02:44 54.4 °F /  12.4 °C 51.1 °F /  10.6 °C 30.08in /  1018.5hPa WNW 0.1mph /  0.2km/h 2.3mph /  3.7km/h 88.7% 0.00in /  0mm 0 W/m2
02:49 54.2 °F /  12.3 °C 51.1 °F /  10.6 °C 30.08in /  1018.5hPa WSW 0.4mph /  0.6km/h 2.3mph /  3.7km/h 89% 0.00in /  0mm 0 W/m2
02:54 54.2 °F /  12.3 °C 51 °F /  10.6 °C 30.08in /  1018.5hPa WSW 1.3mph /  2.1km/h 3.4mph /  5.5km/h 89.1% 0.00in /  0mm 0 W/m2
02:59 53.9 °F /  12.2 °C 51.1 °F /  10.6 °C 30.08in /  1018.5hPa WSW 0.5mph /  0.8km/h 3.4mph /  5.5km/h 90% 0.00in /  0mm 0 W/m2
03:04 53.7 °F /  12.1 °C 50.8 °F /  10.4 °C 30.08in /  1018.5hPa WSW 0.5mph /  0.8km/h 2.3mph /  3.7km/h 90% 0.00in /  0mm 0 W/m2
03:09 53.6 °F /  12 °C 51 °F /  10.6 °C 30.08in /  1018.5hPa WSW 0.6mph /  1km/h 2.3mph /  3.7km/h 90.9% 0.00in /  0mm 0 W/m2
03:14 53.7 °F /  12.1 °C 50.9 °F /  10.5 °C 30.08in /  1018.5hPa WSW 1.1mph /  1.8km/h 2.3mph /  3.7km/h 90.3% 0.00in /  0mm 0 W/m2
03:19 53.7 °F /  12.1 °C 50.9 °F /  10.5 °C 30.08in /  1018.5hPa West 1.2mph /  1.9km/h 3.4mph /  5.5km/h 90% 0.00in /  0mm 0 W/m2
03:24 53.9 °F /  12.2 °C 51.1 °F /  10.6 °C 30.08in /  1018.5hPa West 1.4mph /  2.3km/h 3.4mph /  5.5km/h 90% 0.00in /  0mm 0 W/m2
03:29 54 °F /  12.2 °C 51 °F /  10.6 °C 30.08in /  1018.5hPa West 0.9mph /  1.4km/h 3.4mph /  5.5km/h 89.5% 0.00in /  0mm 0 W/m2
03:34 54.2 °F /  12.3 °C 51.3 °F /  10.7 °C 30.08in /  1018.5hPa West 2.4mph /  3.9km/h 4.6mph /  7.4km/h 89.8% 0.00in /  0mm 0 W/m2
03:39 54.5 °F /  12.5 °C 51.3 °F /  10.7 °C 30.08in /  1018.5hPa West 2.9mph /  4.7km/h 4.6mph /  7.4km/h 89.1% 0.00in /  0mm 0 W/m2
03:44 54.9 °F /  12.7 °C 51.4 °F /  10.8 °C 30.08in /  1018.5hPa West 3.3mph /  5.3km/h 4.6mph /  7.4km/h 88.1% 0.00in /  0mm 0 W/m2
03:49 55.1 °F /  12.8 °C 51.4 °F /  10.8 °C 30.08in /  1018.5hPa West 2.7mph /  4.3km/h 4.6mph /  7.4km/h 87.4% 0.00in /  0mm 0 W/m2
03:54 55.1 °F /  12.8 °C 51.3 °F /  10.7 °C 30.08in /  1018.5hPa West 2.5mph /  4km/h 3.4mph /  5.5km/h 87% 0.00in /  0mm 0 W/m2
03:59 55.1 °F /  12.8 °C 51.3 °F /  10.7 °C 30.07in /  1018.2hPa West 2.7mph /  4.3km/h 4.6mph /  7.4km/h 87% 0.00in /  0mm 0 W/m2
04:04 55 °F /  12.8 °C 51.3 °F /  10.7 °C 30.07in /  1018.2hPa WNW 2.4mph /  3.9km/h 4.6mph /  7.4km/h 87.3% 0.00in /  0mm 0 W/m2
04:09 54.7 °F /  12.6 °C 51.2 °F /  10.7 °C 30.07in /  1018.2hPa WNW 2.5mph /  4km/h 3.4mph /  5.5km/h 88% 0.00in /  0mm 0 W/m2
04:14 54.5 °F /  12.5 °C 51.1 °F /  10.6 °C 30.08in /  1018.5hPa WNW 2.3mph /  3.7km/h 3.4mph /  5.5km/h 88% 0.00in /  0mm 0 W/m2
04:19 54.4 °F /  12.4 °C 51 °F /  10.6 °C 30.08in /  1018.5hPa WNW 2.1mph /  3.4km/h 3.4mph /  5.5km/h 88% 0.00in /  0mm 0 W/m2
04:24 54.2 °F /  12.3 °C 50.9 °F /  10.5 °C 30.08in /  1018.5hPa WNW 2.6mph /  4.2km/h 3.4mph /  5.5km/h 88.4% 0.00in /  0mm 0 W/m2
04:29 54.3 °F /  12.4 °C 51.1 °F /  10.6 °C 30.08in /  1018.5hPa WNW 3mph /  4.8km/h 4.6mph /  7.4km/h 89% 0.00in /  0mm 0 W/m2
04:34 54.5 °F /  12.5 °C 51.1 °F /  10.6 °C 30.08in /  1018.5hPa WNW 2.9mph /  4.7km/h 4.6mph /  7.4km/h 88.1% 0.00in /  0mm 0 W/m2
04:39 54.5 °F /  12.5 °C 51.3 °F /  10.7 °C 30.08in /  1018.5hPa West 3.2mph /  5.1km/h 4.6mph /  7.4km/h 89% 0.00in /  0mm 0 W/m2
04:44 54.4 °F /  12.4 °C 51.2 °F /  10.7 °C 30.08in /  1018.5hPa West 3.9mph /  6.3km/h 4.6mph /  7.4km/h 88.8% 0.00in /  0mm 0 W/m2
04:49 54.4 °F /  12.4 °C 51 °F /  10.6 °C 30.08in /  1018.5hPa West 3.6mph /  5.8km/h 5.8mph /  9.3km/h 88% 0.00in /  0mm 0 W/m2
04:54 54.4 °F /  12.4 °C 51 °F /  10.6 °C 30.08in /  1018.5hPa West 3.8mph /  6.1km/h 5.8mph /  9.3km/h 88.2% 0.00in /  0mm 0 W/m2
04:59 54.3 °F /  12.4 °C 51.1 °F /  10.6 °C 30.08in /  1018.5hPa West 3.4mph /  5.5km/h 4.6mph /  7.4km/h 88.9% 0.00in /  0mm 0 W/m2
05:04 54.2 °F /  12.3 °C 51 °F /  10.6 °C 30.08in /  1018.5hPa West 3.5mph /  5.6km/h 4.6mph /  7.4km/h 88.8% 0.00in /  0mm 0 W/m2
05:09 54.2 °F /  12.3 °C 50.9 °F /  10.5 °C 30.08in /  1018.5hPa West 3.9mph /  6.3km/h 4.6mph /  7.4km/h 88.7% 0.00in /  0mm 0 W/m2
05:14 54 °F /  12.2 °C 50.8 °F /  10.4 °C 30.08in /  1018.5hPa West 4.2mph /  6.8km/h 5.8mph /  9.3km/h 89% 0.00in /  0mm 0 W/m2
05:19 53.9 °F /  12.2 °C 50.7 °F /  10.4 °C 30.09in /  1018.8hPa West 3.4mph /  5.5km/h 5.8mph /  9.3km/h 89% 0.00in /  0mm 0 W/m2
05:24 53.9 °F /  12.2 °C 50.7 °F /  10.4 °C 30.09in /  1018.8hPa West 3.5mph /  5.6km/h 4.6mph /  7.4km/h 89% 0.00in /  0mm 0 W/m2
05:29 53.9 °F /  12.2 °C 50.7 °F /  10.4 °C 30.09in /  1018.8hPa West 4.3mph /  6.9km/h 6.9mph /  11.1km/h 89% 0.00in /  0mm 0 W/m2
05:34 53.8 °F /  12.1 °C 50.8 °F /  10.4 °C 30.09in /  1018.8hPa West 4.3mph /  6.9km/h 6.9mph /  11.1km/h 89.7% 0.00in /  0mm 0 W/m2
05:39 53.8 °F /  12.1 °C 50.7 °F /  10.4 °C 30.09in /  1018.8hPa West 4.6mph /  7.4km/h 6.9mph /  11.1km/h 89.5% 0.00in /  0mm 0 W/m2
05:44 53.7 °F /  12.1 °C 50.8 °F /  10.4 °C 30.09in /  1018.8hPa West 4.1mph /  6.6km/h 6.9mph /  11.1km/h 89.8% 0.00in /  0mm 0 W/m2
05:49 53.7 °F /  12.1 °C 50.9 °F /  10.5 °C 30.08in /  1018.5hPa West 5.1mph /  8.2km/h 8.1mph /  13km/h 90% 0.00in /  0mm 0 W/m2
05:54 53.7 °F /  12.1 °C 50.8 °F /  10.4 °C 30.08in /  1018.5hPa West 5.3mph /  8.5km/h 9.2mph /  14.8km/h 90% 0.00in /  0mm 0 W/m2
05:59 53.5 °F /  11.9 °C 50.7 °F /  10.4 °C 30.08in /  1018.5hPa West 4.8mph /  7.7km/h 9.2mph /  14.8km/h 90% 0.00in /  0mm 0 W/m2
06:04 53.5 °F /  11.9 °C 50.6 °F /  10.3 °C 30.09in /  1018.8hPa West 5.2mph /  8.4km/h 6.9mph /  11.1km/h 90% 0.00in /  0mm 0 W/m2
06:09 53.4 °F /  11.9 °C 50.6 °F /  10.3 °C 30.09in /  1018.8hPa West 4.5mph /  7.2km/h 6.9mph /  11.1km/h 90% 0.00in /  0mm 0 W/m2
06:14 53.4 °F /  11.9 °C 50.6 °F /  10.3 °C 30.09in /  1018.8hPa West 5.4mph /  8.7km/h 8.1mph /  13km/h 90.3% 0.00in /  0mm 0 W/m2
06:19 53.4 °F /  11.9 °C 50.7 °F /  10.4 °C 30.09in /  1018.8hPa West 4.9mph /  7.9km/h 8.1mph /  13km/h 90.5% 0.00in /  0mm 0 W/m2
06:24 53.4 °F /  11.9 °C 50.8 °F /  10.4 °C 30.09in /  1018.8hPa West 3.4mph /  5.5km/h 8.1mph /  13km/h 90.8% 0.00in /  0mm 0 W/m2
06:29 53.3 °F /  11.8 °C 50.7 °F /  10.4 °C 30.09in /  1018.8hPa West 3.4mph /  5.5km/h 5.8mph /  9.3km/h 91% 0.00in /  0mm 0 W/m2
06:34 53.5 °F /  11.9 °C 50.9 °F /  10.5 °C 30.09in /  1018.8hPa West 4.6mph /  7.4km/h 8.1mph /  13km/h 91% 0.00in /  0mm 0 W/m2
06:39 53.5 °F /  11.9 °C 51 °F /  10.6 °C 30.09in /  1018.8hPa West 4mph /  6.4km/h 8.1mph /  13km/h 91% 0.00in /  0mm 0 W/m2
06:44 53.6 °F /  12 °C 51.1 °F /  10.6 °C 30.09in /  1018.8hPa West 4mph /  6.4km/h 5.8mph /  9.3km/h 91% 0.00in /  0mm 5 W/m2
06:49 53.6 °F /  12 °C 51.1 °F /  10.6 °C 30.09in /  1018.8hPa West 3.5mph /  5.6km/h 5.8mph /  9.3km/h 91% 0.00in /  0mm 11 W/m2
06:54 53.8 °F /  12.1 °C 51.2 °F /  10.7 °C 30.09in /  1018.8hPa West 3.2mph /  5.1km/h 5.8mph /  9.3km/h 91% 0.00in /  0mm 14 W/m2
06:59 53.8 °F /  12.1 °C 51.2 °F /  10.7 °C 30.09in /  1018.8hPa West 3.3mph /  5.3km/h 4.6mph /  7.4km/h 91% 0.00in /  0mm 19 W/m2
07:04 53.8 °F /  12.1 °C 51.3 °F /  10.7 °C 30.09in /  1018.8hPa West 3.1mph /  5km/h 4.6mph /  7.4km/h 91% 0.00in /  0mm 25 W/m2
07:09 53.9 °F /  12.2 °C 51.3 °F /  10.7 °C 30.09in /  1018.8hPa West 3.2mph /  5.1km/h 4.6mph /  7.4km/h 91% 0.00in /  0mm 28 W/m2
07:14 54 °F /  12.2 °C 51.4 °F /  10.8 °C 30.09in /  1018.8hPa West 3.7mph /  6km/h 5.8mph /  9.3km/h 91% 0.00in /  0mm 33 W/m2
07:19 54.2 °F /  12.3 °C 51.6 °F /  10.9 °C 30.09in /  1018.8hPa West 3.9mph /  6.3km/h 6.9mph /  11.1km/h 91% 0.00in /  0mm 39 W/m2
07:24 54.4 °F /  12.4 °C 51.6 °F /  10.9 °C 30.09in /  1018.8hPa West 3.4mph /  5.5km/h 6.9mph /  11.1km/h 90.3% 0.00in /  0mm 42 W/m2
07:29 54.6 °F /  12.6 °C 51.7 °F /  10.9 °C 30.09in /  1018.8hPa West 4.5mph /  7.2km/h 6.9mph /  11.1km/h 90% 0.00in /  0mm 44 W/m2
07:34 54.7 °F /  12.6 °C 51.8 °F /  11 °C 30.10in /  1019.2hPa West 5.3mph /  8.5km/h 6.9mph /  11.1km/h 90% 0.00in /  0mm 44 W/m2
07:39 54.7 °F /  12.6 °C 51.8 °F /  11 °C 30.10in /  1019.2hPa West 3.7mph /  6km/h 6.9mph /  11.1km/h 90% 0.00in /  0mm 39 W/m2
07:44 54.8 °F /  12.7 °C 52 °F /  11.1 °C 30.10in /  1019.2hPa WNW 1.8mph /  2.9km/h 5.8mph /  9.3km/h 90% 0.00in /  0mm 46 W/m2
07:49 55.2 °F /  12.9 °C 52.3 °F /  11.3 °C 30.09in /  1018.8hPa WNW 2.2mph /  3.5km/h 4.6mph /  7.4km/h 90% 0.00in /  0mm 62 W/m2
07:54 55.7 °F /  13.2 °C 52.6 °F /  11.4 °C 30.09in /  1018.8hPa WNW 2.5mph /  4km/h 6.9mph /  11.1km/h 89.2% 0.00in /  0mm 77 W/m2
07:59 56.1 °F /  13.4 °C 52.8 °F /  11.6 °C 30.09in /  1018.8hPa WNW 2.2mph /  3.5km/h 6.9mph /  11.1km/h 88.6% 0.00in /  0mm 84 W/m2
08:04 56.5 °F /  13.6 °C 53 °F /  11.7 °C 30.09in /  1018.8hPa West 4.3mph /  6.9km/h 6.9mph /  11.1km/h 88% 0.00in /  0mm 84 W/m2
08:09 56.8 °F /  13.8 °C 53.3 °F /  11.8 °C 30.09in /  1018.8hPa West 2.8mph /  4.5km/h 6.9mph /  11.1km/h 88% 0.00in /  0mm 84 W/m2
08:14 57.1 °F /  13.9 °C 53.5 °F /  11.9 °C 30.09in /  1018.8hPa West 2.2mph /  3.5km/h 5.8mph /  9.3km/h 87.8% 0.00in /  0mm 76 W/m2
08:19 57.3 °F /  14.1 °C 53.5 °F /  11.9 °C 30.09in /  1018.8hPa West 2.7mph /  4.3km/h 4.6mph /  7.4km/h 87.3% 0.00in /  0mm 104 W/m2
08:24 57.6 °F /  14.2 °C 53.8 °F /  12.1 °C 30.09in /  1018.8hPa West 3mph /  4.8km/h 4.6mph /  7.4km/h 87% 0.00in /  0mm 206 W/m2
08:29 57.9 °F /  14.4 °C 54 °F /  12.2 °C 30.09in /  1018.8hPa West 3.3mph /  5.3km/h 4.6mph /  7.4km/h 86.8% 0.00in /  0mm 206 W/m2
08:34 58.1 °F /  14.5 °C 54.3 °F /  12.4 °C 30.09in /  1018.8hPa West 4mph /  6.4km/h 5.8mph /  9.3km/h 87% 0.00in /  0mm 95 W/m2
08:39 58.3 °F /  14.6 °C 54.4 °F /  12.4 °C 30.09in /  1018.8hPa West 3.2mph /  5.1km/h 5.8mph /  9.3km/h 87% 0.00in /  0mm 221 W/m2
08:44 58.3 °F /  14.6 °C 54.5 °F /  12.5 °C 30.09in /  1018.8hPa West 2.8mph /  4.5km/h 4.6mph /  7.4km/h 87% 0.00in /  0mm 257 W/m2
08:49 58.6 °F /  14.8 °C 54.7 °F /  12.6 °C 30.09in /  1018.8hPa West 2.9mph /  4.7km/h 4.6mph /  7.4km/h 87% 0.00in /  0mm 260 W/m2
08:54 58.9 °F /  14.9 °C 55.1 °F /  12.8 °C 30.09in /  1018.8hPa West 3mph /  4.8km/h 4.6mph /  7.4km/h 87% 0.00in /  0mm 295 W/m2
08:59 59.5 °F /  15.3 °C 55.4 °F /  13 °C 30.09in /  1018.8hPa West 3mph /  4.8km/h 5.8mph /  9.3km/h 86.4% 0.00in /  0mm 308 W/m2
09:04 60.2 °F /  15.7 °C 55.9 °F /  13.3 °C 30.09in /  1018.8hPa West 1.9mph /  3.1km/h 5.8mph /  9.3km/h 85.5% 0.00in /  0mm 311 W/m2
09:08 60.7 °F /  15.9 °C 56.1 °F /  13.4 °C 30.09in /  1018.8hPa WNW 2.7mph /  4.3km/h 4.6mph /  7.4km/h 84.7% 0.00in /  0mm 343 W/m2
Peotne Weather
Compliments of Weather Underground - 2 mb